Time;durP1;ratioP1;P1;durP2;ratioP2;P2;SDS_P1;SDS_P2;PMS_P1;PMS_P2;Temp;Humidity;BMP_temperature;BMP_pressure;BME280_temperature;BME280_humidity;BME280_pressure;Samples;Min_cycle;Max_cycle;Signal;HPM_P1;HPM_P2
2023/09/05 00:02:17;;;;;;;7.38;3.47;;;;;;;;;;4988853;28;20173;-92
2023/09/05 00:05:22;;;;;;;9.25;3.80;;;;;;;;;;4987892;28;20181;-91
2023/09/05 00:08:28;;;;;;;8.55;3.88;;;;;;;;;;4989200;28;20185;-91
2023/09/05 00:11:34;;;;;;;5.55;3.55;;;;;;;;;;4988796;28;20191;-90
2023/09/05 00:14:41;;;;;;;8.65;3.88;;;;;;;;;;4989404;28;20205;-91
2023/09/05 00:17:48;;;;;;;7.25;3.85;;;;;;;;;;4987714;28;20222;-91
2023/09/05 00:20:55;;;;;;;8.25;3.67;;;;;;;;;;4986463;28;20213;-91
2023/09/05 00:24:19;;;;;;;8.52;3.13;;;;;;;;;;4986877;28;20256;-92
2023/09/05 00:27:24;;;;;;;9.27;3.60;;;;;;;;;;4986870;28;20237;-90
2023/09/05 00:30:31;;;;;;;10.65;3.90;;;;;;;;;;4986536;28;20689;-90
2023/09/05 00:33:37;;;;;;;7.57;3.30;;;;;;;;;;4987972;28;20193;-92
2023/09/05 00:36:42;;;;;;;9.38;3.42;;;;;;;;;;4987201;28;20194;-89
2023/09/05 00:39:47;;;;;;;7.68;3.58;;;;;;;;;;4987730;28;20194;-89
2023/09/05 00:42:53;;;;;;;6.80;3.35;;;;;;;;;;4987918;28;20222;-89
2023/09/05 00:45:58;;;;;;;8.68;3.67;;;;;;;;;;4987320;28;20190;-89
2023/09/05 00:49:05;;;;;;;8.57;3.67;;;;;;;;;;4987154;28;20284;-89
2023/09/05 00:52:11;;;;;;;8.25;3.60;;;;;;;;;;4986490;28;20713;-93
2023/09/05 00:55:17;;;;;;;13.35;3.78;;;;;;;;;;4987669;28;20273;-91
2023/09/05 00:58:22;;;;;;;7.78;3.60;;;;;;;;;;4987289;28;20321;-91
2023/09/05 01:01:28;;;;;;;9.52;3.72;;;;;;;;;;4987344;28;20189;-90
2023/09/05 01:04:35;;;;;;;6.47;3.90;;;;;;;;;;4986141;28;20220;-89
2023/09/05 01:07:46;;;;;;;8.18;4.10;;;;;;;;;;4985643;28;20221;-90
2023/09/05 01:10:57;;;;;;;10.65;4.32;;;;;;;;;;4985838;28;20174;-91
2023/09/05 01:14:02;;;;;;;10.05;4.10;;;;;;;;;;4984985;28;20181;-91
2023/09/05 01:17:08;;;;;;;6.53;3.65;;;;;;;;;;4986769;28;20667;-90
2023/09/05 01:20:16;;;;;;;7.53;3.75;;;;;;;;;;4983875;28;20189;-88
2023/09/05 01:23:26;;;;;;;13.35;4.60;;;;;;;;;;4984476;28;20213;-91
2023/09/05 01:26:33;;;;;;;10.10;3.90;;;;;;;;;;4986131;28;20194;-89
2023/09/05 01:29:39;;;;;;;10.63;3.75;;;;;;;;;;4971131;28;20189;-92
2023/09/05 01:32:44;;;;;;;8.82;4.20;;;;;;;;;;4987699;28;20687;-92
2023/09/05 01:35:50;;;;;;;8.23;3.60;;;;;;;;;;4985512;28;20233;-92
2023/09/05 01:38:56;;;;;;;8.90;3.97;;;;;;;;;;4983770;28;20225;-91
2023/09/05 01:42:03;;;;;;;8.63;3.90;;;;;;;;;;4984588;28;20181;-91
2023/09/05 01:45:08;;;;;;;6.65;3.45;;;;;;;;;;4984876;28;20313;-93
2023/09/05 01:48:13;;;;;;;13.38;3.83;;;;;;;;;;4987338;28;20229;-88
2023/09/05 01:51:19;;;;;;;7.18;3.42;;;;;;;;;;4988651;28;20198;-91
2023/09/05 01:54:25;;;;;;;8.07;3.55;;;;;;;;;;4988216;28;20197;-89
2023/09/05 01:57:32;;;;;;;9.77;3.90;;;;;;;;;;4990108;28;20197;-90
2023/09/05 02:00:37;;;;;;;9.85;3.53;;;;;;;;;;4989811;28;20190;-91
2023/09/05 02:03:44;;;;;;;5.22;3.38;;;;;;;;;;4988925;28;20587;-90
2023/09/05 02:06:49;;;;;;;7.20;3.50;;;;;;;;;;4989155;28;20205;-90
2023/09/05 02:09:54;;;;;;;8.25;3.33;;;;;;;;;;4988741;28;20209;-90
2023/09/05 02:13:00;;;;;;;8.32;3.42;;;;;;;;;;4987962;28;20194;-89
2023/09/05 02:16:05;;;;;;;10.45;3.05;;;;;;;;;;4989086;28;20205;-90
2023/09/05 02:19:12;;;;;;;7.15;3.10;;;;;;;;;;4988180;28;20660;-92
2023/09/05 02:22:17;;;;;;;15.05;3.60;;;;;;;;;;4987008;28;20182;-92
2023/09/05 02:25:23;;;;;;;14.60;4.05;;;;;;;;;;4987903;28;20217;-90
2023/09/05 02:28:30;;;;;;;9.00;3.75;;;;;;;;;;4986476;28;20273;-89
2023/09/05 02:31:37;;;;;;;10.40;3.90;;;;;;;;;;4988838;28;20213;-90
2023/09/05 02:34:43;;;;;;;7.82;3.75;;;;;;;;;;4988624;28;20190;-91
2023/09/05 02:37:51;;;;;;;10.48;3.97;;;;;;;;;;4987804;28;20194;-89
2023/09/05 02:40:56;;;;;;;10.68;4.07;;;;;;;;;;4988901;28;20191;-90
2023/09/05 02:44:03;;;;;;;10.98;4.20;;;;;;;;;;4987701;28;20216;-89
2023/09/05 02:47:07;;;;;;;9.10;4.10;;;;;;;;;;4989672;28;20217;-90
2023/09/05 02:50:13;;;;;;;8.52;4.22;;;;;;;;;;4990038;28;20222;-93
2023/09/05 02:53:18;;;;;;;12.00;4.22;;;;;;;;;;4988945;28;20177;-90
2023/09/05 02:56:23;;;;;;;7.65;4.47;;;;;;;;;;4971780;28;20201;-90
2023/09/05 02:59:31;;;;;;;10.18;4.80;;;;;;;;;;4987550;28;20190;-91
2023/09/05 03:02:40;;;;;;;7.13;3.75;;;;;;;;;;4989318;28;20194;-90
2023/09/05 03:05:45;;;;;;;9.25;3.95;;;;;;;;;;4970152;28;20183;-90
2023/09/05 03:08:51;;;;;;;10.65;3.78;;;;;;;;;;4977692;28;20287;-91
2023/09/05 03:11:57;;;;;;;5.13;3.10;;;;;;;;;;4988701;28;20194;-93
2023/09/05 03:15:03;;;;;;;13.07;3.47;;;;;;;;;;4987538;28;20236;-92
2023/09/05 03:18:08;;;;;;;5.82;3.30;;;;;;;;;;4986637;28;20174;-90
2023/09/05 03:21:13;;;;;;;9.15;3.78;;;;;;;;;;4988559;28;20222;-89
2023/09/05 03:24:21;;;;;;;8.40;3.95;;;;;;;;;;4986606;28;20190;-89
2023/09/05 03:27:26;;;;;;;7.93;4.03;;;;;;;;;;4987887;28;20198;-90
2023/09/05 03:30:33;;;;;;;7.88;3.63;;;;;;;;;;4987796;28;20189;-90
2023/09/05 03:33:39;;;;;;;10.98;3.78;;;;;;;;;;4987675;28;20346;-91
2023/09/05 03:36:44;;;;;;;8.30;4.38;;;;;;;;;;4987944;28;20181;-91
2023/09/05 03:39:50;;;;;;;9.05;4.00;;;;;;;;;;4987918;28;20181;-90
2023/09/05 03:42:55;;;;;;;6.55;4.03;;;;;;;;;;4989376;28;20186;-92
2023/09/05 03:46:04;;;;;;;9.82;4.50;;;;;;;;;;4987833;28;20221;-88
2023/09/05 03:49:10;;;;;;;9.13;4.13;;;;;;;;;;4986907;28;20322;-89
2023/09/05 03:52:15;;;;;;;11.07;4.00;;;;;;;;;;4985693;28;20288;-91
2023/09/05 03:55:20;;;;;;;10.63;4.30;;;;;;;;;;4987022;28;20221;-90
2023/09/05 03:58:25;;;;;;;9.00;4.60;;;;;;;;;;4986243;28;20221;-91
2023/09/05 04:01:38;;;;;;;9.00;3.83;;;;;;;;;;4986373;28;20190;-91
2023/09/05 04:04:45;;;;;;;9.07;4.00;;;;;;;;;;4984950;28;20198;-90
2023/09/05 04:07:52;;;;;;;9.95;4.32;;;;;;;;;;4985439;28;20262;-89
2023/09/05 04:10:59;;;;;;;6.63;3.60;;;;;;;;;;4986253;28;20194;-90
2023/09/05 04:14:05;;;;;;;9.98;3.50;;;;;;;;;;4987373;28;20218;-90
2023/09/05 04:17:12;;;;;;;7.43;3.80;;;;;;;;;;4985819;28;20186;-88
2023/09/05 04:20:17;;;;;;;10.70;4.47;;;;;;;;;;4987201;28;20194;-90
2023/09/05 04:23:22;;;;;;;7.43;4.20;;;;;;;;;;4988819;28;20207;-90
2023/09/05 04:26:28;;;;;;;7.15;4.32;;;;;;;;;;4985018;28;20727;-90
2023/09/05 04:29:33;;;;;;;14.73;4.75;;;;;;;;;;4975753;28;20653;-92
2023/09/05 04:32:42;;;;;;;6.72;3.80;;;;;;;;;;4989937;28;20233;-89
2023/09/05 04:35:49;;;;;;;8.65;3.78;;;;;;;;;;4989244;28;20209;-88
2023/09/05 04:38:54;;;;;;;8.52;3.75;;;;;;;;;;4986590;28;20185;-91
2023/09/05 04:41:59;;;;;;;7.07;3.97;;;;;;;;;;4967303;28;20285;-92
2023/09/05 04:45:06;;;;;;;8.82;3.95;;;;;;;;;;4975400;28;20205;-90
2023/09/05 04:48:13;;;;;;;10.90;2.95;;;;;;;;;;4988028;28;20191;-90
2023/09/05 04:51:18;;;;;;;6.68;3.20;;;;;;;;;;4986994;28;20766;-92
2023/09/05 04:54:24;;;;;;;6.68;3.20;;;;;;;;;;4986271;28;20288;-91
2023/09/05 04:57:33;;;;;;;6.22;3.47;;;;;;;;;;4985595;28;20270;-91
2023/09/05 05:00:39;;;;;;;9.00;3.42;;;;;;;;;;4991200;28;20214;-92
2023/09/05 05:03:45;;;;;;;7.32;3.30;;;;;;;;;;4986774;28;20286;-90
2023/09/05 05:07:03;;;;;;;5.90;3.10;;;;;;;;;;4986867;28;20213;-88
2023/09/05 05:10:08;;;;;;;10.55;3.55;;;;;;;;;;4984684;28;20178;-91
2023/09/05 05:13:13;;;;;;;7.90;3.00;;;;;;;;;;4985897;28;20720;-90
2023/09/05 05:16:19;;;;;;;7.18;3.60;;;;;;;;;;4985359;28;20209;-90
2023/09/05 05:19:26;;;;;;;11.35;3.35;;;;;;;;;;4987439;28;20198;-89
2023/09/05 05:22:32;;;;;;;15.15;3.72;;;;;;;;;;4965477;28;20267;-88
2023/09/05 05:25:38;;;;;;;8.75;3.97;;;;;;;;;;4965006;28;20298;-89
2023/09/05 05:28:43;;;;;;;9.18;4.05;;;;;;;;;;4964459;28;20194;-91
2023/09/05 05:31:48;;;;;;;7.88;3.85;;;;;;;;;;4984489;28;20725;-88
2023/09/05 05:34:54;;;;;;;6.55;3.45;;;;;;;;;;4986706;28;20680;-90
2023/09/05 05:38:00;;;;;;;7.72;3.17;;;;;;;;;;4983507;28;20226;-88
2023/09/05 05:41:07;;;;;;;5.97;3.30;;;;;;;;;;4988015;28;20226;-89
2023/09/05 05:44:12;;;;;;;8.02;3.80;;;;;;;;;;4988975;28;20202;-90
2023/09/05 05:47:17;;;;;;;8.23;3.80;;;;;;;;;;4988291;28;20289;-91
2023/09/05 05:50:24;;;;;;;6.03;3.60;;;;;;;;;;4987956;28;20182;-90
2023/09/05 05:53:30;;;;;;;8.93;3.60;;;;;;;;;;4988178;28;20210;-90
2023/09/05 05:56:35;;;;;;;7.28;3.65;;;;;;;;;;4987242;28;20226;-88
2023/09/05 05:59:41;;;;;;;7.25;3.70;;;;;;;;;;4993819;28;20205;-91
2023/09/05 06:02:50;;;;;;;8.50;3.42;;;;;;;;;;4989289;28;20218;-87
2023/09/05 06:05:58;;;;;;;7.50;3.90;;;;;;;;;;4986648;28;20195;-88
2023/09/05 06:09:03;;;;;;;6.93;3.40;;;;;;;;;;4981177;28;20297;-89
2023/09/05 06:12:09;;;;;;;5.63;3.10;;;;;;;;;;4964017;28;20194;-87
2023/09/05 06:15:14;;;;;;;10.98;5.82;;;;;;;;;;5004617;28;20305;-89
2023/09/05 06:18:19;;;;;;;8.68;3.50;;;;;;;;;;5004091;28;20193;-90
2023/09/05 06:21:26;;;;;;;4.97;3.05;;;;;;;;;;5003460;28;20185;-91
2023/09/05 06:24:32;;;;;;;6.63;3.33;;;;;;;;;;5003504;28;20197;-92
2023/09/05 06:27:38;;;;;;;5.65;3.13;;;;;;;;;;5002165;28;20204;-89
2023/09/05 06:30:44;;;;;;;4.80;2.83;;;;;;;;;;5003491;28;20189;-89
2023/09/05 06:33:49;;;;;;;6.80;3.38;;;;;;;;;;5004005;28;20302;-90
2023/09/05 06:36:56;;;;;;;7.70;3.05;;;;;;;;;;5005529;28;20189;-91
2023/09/05 06:40:04;;;;;;;7.38;3.30;;;;;;;;;;5007050;28;20193;-92
2023/09/05 06:43:10;;;;;;;6.10;3.35;;;;;;;;;;5006224;28;20262;-92
2023/09/05 06:46:15;;;;;;;6.95;3.17;;;;;;;;;;5005303;28;20180;-89
2023/09/05 06:49:20;;;;;;;5.68;3.20;;;;;;;;;;5004933;28;20197;-92
2023/09/05 06:52:27;;;;;;;5.72;3.05;;;;;;;;;;5007000;28;20266;-90
2023/09/05 06:55:34;;;;;;;5.47;3.33;;;;;;;;;;5006959;28;20267;-87
2023/09/05 06:58:39;;;;;;;9.57;3.72;;;;;;;;;;5006101;28;20205;-89
2023/09/05 07:01:44;;;;;;;9.20;3.45;;;;;;;;;;5006215;28;20344;-87
2023/09/05 07:04:50;;;;;;;5.03;2.90;;;;;;;;;;5006855;28;20196;-91
2023/09/05 07:07:57;;;;;;;5.70;3.00;;;;;;;;;;5006214;28;20188;-89
2023/09/05 07:11:03;;;;;;;5.45;2.92;;;;;;;;;;5005868;28;20344;-90
2023/09/05 07:14:09;;;;;;;6.80;2.90;;;;;;;;;;5005767;28;20221;-91
2023/09/05 07:17:14;;;;;;;8.13;2.95;;;;;;;;;;5005975;28;20189;-90
2023/09/05 07:20:19;;;;;;;5.55;2.72;;;;;;;;;;5004752;28;20197;-92
2023/09/05 07:23:26;;;;;;;3.78;2.55;;;;;;;;;;5006918;28;20200;-91
2023/09/05 07:26:32;;;;;;;4.15;2.60;;;;;;;;;;5007564;28;20210;-91
2023/09/05 07:29:37;;;;;;;4.82;2.80;;;;;;;;;;5006316;28;20241;-89
2023/09/05 07:32:43;;;;;;;3.10;2.20;;;;;;;;;;5007609;28;20220;-86
2023/09/05 07:35:50;;;;;;;7.50;2.30;;;;;;;;;;5008059;28;20273;-89
2023/09/05 07:38:58;;;;;;;6.10;2.78;;;;;;;;;;5010209;28;20185;-92
2023/09/05 07:42:05;;;;;;;5.97;2.65;;;;;;;;;;5008978;28;20197;-90
2023/09/05 07:45:10;;;;;;;4.50;2.72;;;;;;;;;;5008424;28;20197;-90
2023/09/05 07:48:16;;;;;;;3.08;1.92;;;;;;;;;;4994584;28;20196;-89
2023/09/05 07:51:22;;;;;;;5.10;2.60;;;;;;;;;;5009194;28;20173;-89
2023/09/05 07:54:29;;;;;;;8.43;2.85;;;;;;;;;;5008213;28;20193;-94
2023/09/05 07:57:35;;;;;;;6.30;2.72;;;;;;;;;;5006603;28;20200;-89
2023/09/05 08:00:42;;;;;;;6.70;2.97;;;;;;;;;;5007027;28;20315;-89
2023/09/05 08:03:47;;;;;;;5.93;2.60;;;;;;;;;;5005439;28;20196;-90
2023/09/05 08:06:53;;;;;;;4.15;2.40;;;;;;;;;;5007538;28;20192;-89
2023/09/05 08:10:00;;;;;;;5.55;2.50;;;;;;;;;;5005693;28;20181;-91
2023/09/05 08:13:05;;;;;;;5.68;2.70;;;;;;;;;;5005700;28;20209;-88
2023/09/05 08:16:11;;;;;;;6.07;2.70;;;;;;;;;;5003237;28;20192;-88
2023/09/05 08:19:16;;;;;;;4.43;2.72;;;;;;;;;;5003199;28;20189;-90
2023/09/05 08:22:22;;;;;;;6.97;2.83;;;;;;;;;;5004480;28;20176;-86
2023/09/05 08:25:28;;;;;;;5.68;2.70;;;;;;;;;;5003529;28;20275;-91
2023/09/05 08:28:35;;;;;;;5.68;2.83;;;;;;;;;;5005391;28;20663;-91
2023/09/05 08:31:41;;;;;;;7.50;2.70;;;;;;;;;;5004534;28;20219;-91
2023/09/05 08:34:50;;;;;;;8.82;2.70;;;;;;;;;;5003346;28;20659;-92
2023/09/05 08:41:16;;;;;;;4.28;2.47;;;;;;;;;;5005835;28;20235;-92
2023/09/05 08:44:22;;;;;;;4.95;3.10;;;;;;;;;;5004833;28;20302;-89
2023/09/05 08:47:27;;;;;;;6.47;2.90;;;;;;;;;;5004928;28;20305;-89
2023/09/05 08:50:33;;;;;;;6.22;3.10;;;;;;;;;;5005218;28;20172;-90
2023/09/05 08:53:42;;;;;;;5.57;3.05;;;;;;;;;;5004071;28;20200;-87
2023/09/05 08:56:49;;;;;;;6.60;2.90;;;;;;;;;;5004284;28;20651;-94
2023/09/05 08:59:55;;;;;;;7.05;2.63;;;;;;;;;;5005339;28;20168;-88
2023/09/05 09:03:00;;;;;;;3.50;2.50;;;;;;;;;;5006173;28;20184;-89
2023/09/05 09:06:05;;;;;;;7.40;2.85;;;;;;;;;;5003264;28;20236;-91
2023/09/05 09:09:30;;;;;;;4.13;2.60;;;;;;;;;;5006618;28;20193;-89
2023/09/05 09:12:37;;;;;;;4.80;2.90;;;;;;;;;;5010030;28;20183;-90
2023/09/05 09:15:43;;;;;;;5.43;3.20;;;;;;;;;;5006295;28;20216;-92
2023/09/05 09:18:50;;;;;;;4.45;2.97;;;;;;;;;;5005160;28;20208;-90
2023/09/05 09:21:57;;;;;;;6.53;2.88;;;;;;;;;;5004722;28;20192;-90
2023/09/05 09:25:02;;;;;;;4.55;2.65;;;;;;;;;;5007172;28;20192;-91
2023/09/05 09:28:10;;;;;;;3.92;2.53;;;;;;;;;;5008006;28;20192;-91
2023/09/05 09:31:16;;;;;;;4.63;2.80;;;;;;;;;;5007796;28;20228;-93
2023/09/05 09:34:21;;;;;;;9.93;2.53;;;;;;;;;;5007245;28;20212;-93
2023/09/05 09:37:27;;;;;;;6.95;2.63;;;;;;;;;;5006132;28;20256;-90
2023/09/05 09:40:37;;;;;;;5.78;2.85;;;;;;;;;;5007773;28;20172;-91
2023/09/05 09:43:46;;;;;;;5.35;2.72;;;;;;;;;;5007228;28;20671;-92
2023/09/05 09:46:53;;;;;;;6.13;3.17;;;;;;;;;;5008073;28;20244;-89
2023/09/05 09:50:00;;;;;;;3.60;2.63;;;;;;;;;;5005973;28;20205;-91
2023/09/05 09:53:11;;;;;;;4.47;2.70;;;;;;;;;;5004558;28;20197;-89
2023/09/05 09:56:18;;;;;;;9.23;2.53;;;;;;;;;;5006516;28;20204;-90
2023/09/05 09:59:35;;;;;;;4.00;2.70;;;;;;;;;;5008381;28;20200;-91
2023/09/05 10:02:43;;;;;;;3.50;2.42;;;;;;;;;;5007005;28;20278;-91
2023/09/05 10:05:48;;;;;;;3.50;2.22;;;;;;;;;;5006992;28;20327;-92
2023/09/05 10:08:54;;;;;;;5.18;2.50;;;;;;;;;;5006405;28;20317;-88
2023/09/05 10:12:00;;;;;;;4.63;2.38;;;;;;;;;;5008749;28;20216;-92
2023/09/05 10:15:07;;;;;;;4.97;2.90;;;;;;;;;;5006837;28;20192;-90
2023/09/05 10:18:13;;;;;;;5.97;2.85;;;;;;;;;;5008606;28;20204;-92
2023/09/05 10:21:20;;;;;;;4.20;2.70;;;;;;;;;;5007373;28;20660;-91
2023/09/05 10:24:26;;;;;;;5.03;2.58;;;;;;;;;;5006965;28;20212;-90
2023/09/05 10:27:31;;;;;;;3.60;2.67;;;;;;;;;;5009443;28;20269;-93
2023/09/05 10:30:42;;;;;;;5.75;2.88;;;;;;;;;;5005682;28;20193;-89
2023/09/05 10:33:47;;;;;;;3.80;2.58;;;;;;;;;;5007329;28;20200;-91
2023/09/05 10:36:53;;;;;;;4.90;2.63;;;;;;;;;;5010652;28;20213;-89
2023/09/05 10:40:06;;;;;;;3.70;2.40;;;;;;;;;;5009190;28;20241;-89
2023/09/05 10:43:17;;;;;;;4.38;2.60;;;;;;;;;;5009870;28;20180;-90
2023/09/05 10:46:24;;;;;;;2.70;2.13;;;;;;;;;;5009305;28;20228;-91
2023/09/05 10:49:31;;;;;;;3.92;2.47;;;;;;;;;;5008659;28;20267;-92
2023/09/05 10:52:37;;;;;;;4.50;2.70;;;;;;;;;;5010171;28;20671;-90
2023/09/05 10:55:46;;;;;;;4.88;2.50;;;;;;;;;;5009882;28;20727;-88
2023/09/05 10:58:54;;;;;;;5.53;2.47;;;;;;;;;;5008112;28;20196;-89
2023/09/05 11:02:02;;;;;;;4.05;2.30;;;;;;;;;;4970544;28;20205;-92
2023/09/05 11:05:11;;;;;;;4.72;2.80;;;;;;;;;;4971152;28;20202;-90
2023/09/05 11:08:21;;;;;;;4.28;2.72;;;;;;;;;;4969779;28;20241;-91
2023/09/05 11:11:26;;;;;;;4.57;2.53;;;;;;;;;;4969370;28;20186;-89
2023/09/05 11:14:33;;;;;;;5.00;2.33;;;;;;;;;;4968009;28;20226;-92
2023/09/05 11:17:39;;;;;;;5.47;2.40;;;;;;;;;;4966846;28;20660;-93
2023/09/05 11:20:45;;;;;;;5.50;2.28;;;;;;;;;;4966783;28;20202;-91
2023/09/05 11:23:52;;;;;;;3.47;2.40;;;;;;;;;;4988392;28;20324;-93
2023/09/05 11:26:57;;;;;;;3.80;2.50;;;;;;;;;;4987083;28;20220;-91
2023/09/05 11:30:03;;;;;;;7.57;2.20;;;;;;;;;;5004432;28;20212;-92
2023/09/05 11:33:10;;;;;;;4.28;2.20;;;;;;;;;;4988541;28;20201;-90
2023/09/05 11:36:15;;;;;;;4.38;2.47;;;;;;;;;;4989276;28;20193;-91
2023/09/05 11:39:25;;;;;;;4.68;2.60;;;;;;;;;;4988041;28;20201;-88
2023/09/05 11:42:31;;;;;;;4.88;2.15;;;;;;;;;;4989783;28;20192;-90
2023/09/05 11:45:37;;;;;;;3.78;2.47;;;;;;;;;;4991017;28;20201;-90
2023/09/05 11:48:45;;;;;;;3.13;2.40;;;;;;;;;;4968542;28;20274;-92
2023/09/05 11:51:50;;;;;;;3.22;2.15;;;;;;;;;;4968536;28;20263;-91
2023/09/05 11:54:56;;;;;;;3.65;2.20;;;;;;;;;;4977007;28;20219;-88
2023/09/05 11:58:02;;;;;;;3.75;2.45;;;;;;;;;;4968647;28;20271;-93
2023/09/05 12:01:08;;;;;;;4.25;2.13;;;;;;;;;;4967550;28;20190;-92
2023/09/05 12:04:17;;;;;;;5.65;2.92;;;;;;;;;;4971281;28;20186;-88
2023/09/05 12:07:24;;;;;;;3.38;2.25;;;;;;;;;;4984089;28;20312;-90
2023/09/05 12:10:39;;;;;;;2.95;2.10;;;;;;;;;;4991852;28;20220;-88
2023/09/05 12:13:45;;;;;;;4.97;2.33;;;;;;;;;;4989771;28;20270;-90
2023/09/05 12:16:50;;;;;;;3.70;2.42;;;;;;;;;;4992105;28;20192;-90
2023/09/05 12:19:57;;;;;;;6.80;2.40;;;;;;;;;;4972100;28;20190;-90
2023/09/05 12:23:03;;;;;;;8.98;2.33;;;;;;;;;;4972947;28;20181;-91
2023/09/05 12:26:08;;;;;;;3.05;2.30;;;;;;;;;;4970920;28;20213;-92
2023/09/05 12:29:15;;;;;;;4.80;2.72;;;;;;;;;;4981576;28;20586;-91
2023/09/05 12:32:26;;;;;;;3.65;2.33;;;;;;;;;;4983597;28;20208;-90
2023/09/05 12:35:34;;;;;;;3.92;2.10;;;;;;;;;;4988059;28;20217;-92
2023/09/05 12:38:40;;;;;;;4.65;2.40;;;;;;;;;;4989808;28;20186;-90
2023/09/05 12:41:46;;;;;;;3.97;2.50;;;;;;;;;;4991874;28;20212;-90
2023/09/05 12:44:52;;;;;;;4.95;2.50;;;;;;;;;;4974247;28;20206;-90
2023/09/05 12:47:58;;;;;;;4.93;2.60;;;;;;;;;;5002772;28;20278;-90
2023/09/05 12:54:27;;;;;;;4.50;2.78;;;;;;;;;;5006990;28;20200;-91
2023/09/05 12:57:33;;;;;;;6.13;2.50;;;;;;;;;;4997877;28;20204;-88
2023/09/05 13:00:39;;;;;;;6.00;2.50;;;;;;;;;;4990379;28;20246;-90
2023/09/05 13:03:46;;;;;;;4.53;2.25;;;;;;;;;;4990514;28;20201;-90
2023/09/05 13:06:53;;;;;;;5.43;2.40;;;;;;;;;;4991416;28;20275;-91
2023/09/05 13:09:59;;;;;;;8.65;2.50;;;;;;;;;;4991424;28;20208;-91
2023/09/05 13:13:06;;;;;;;9.40;2.50;;;;;;;;;;4970962;28;20275;-88
2023/09/05 13:16:14;;;;;;;8.73;2.50;;;;;;;;;;4971458;28;20202;-90
2023/09/05 13:19:20;;;;;;;5.00;2.28;;;;;;;;;;4972727;28;20193;-90
2023/09/05 13:22:26;;;;;;;7.97;2.55;;;;;;;;;;4971363;28;20186;-90
2023/09/05 13:25:32;;;;;;;4.10;2.30;;;;;;;;;;4969865;28;20226;-90
2023/09/05 13:28:38;;;;;;;3.47;2.45;;;;;;;;;;4971031;28;20193;-90
2023/09/05 13:31:43;;;;;;;5.13;2.30;;;;;;;;;;4983176;28;20220;-92
2023/09/05 13:34:48;;;;;;;4.00;2.60;;;;;;;;;;4991131;28;20177;-90
2023/09/05 13:37:55;;;;;;;6.10;2.40;;;;;;;;;;4970930;28;20194;-89
2023/09/05 13:41:00;;;;;;;5.32;2.40;;;;;;;;;;4971305;28;20214;-91
2023/09/05 13:44:06;;;;;;;2.58;2.00;;;;;;;;;;4975682;28;20190;-89
2023/09/05 13:47:11;;;;;;;3.25;2.10;;;;;;;;;;4992123;28;20221;-92
2023/09/05 13:50:20;;;;;;;2.80;2.00;;;;;;;;;;4992979;28;20204;-93
2023/09/05 13:53:28;;;;;;;3.47;2.40;;;;;;;;;;4991798;28;20207;-93
2023/09/05 13:56:33;;;;;;;3.58;2.28;;;;;;;;;;4993438;28;20212;-89
2023/09/05 13:59:38;;;;;;;3.85;2.20;;;;;;;;;;4992334;28;20249;-90
2023/09/05 14:02:43;;;;;;;3.50;2.20;;;;;;;;;;4972606;28;20202;-89
2023/09/05 14:05:52;;;;;;;5.05;2.63;;;;;;;;;;4986966;28;20213;-92
2023/09/05 14:09:03;;;;;;;3.33;2.45;;;;;;;;;;4990125;28;20213;-90
2023/09/05 14:12:09;;;;;;;3.53;2.25;;;;;;;;;;4972937;28;20386;-92
2023/09/05 14:15:14;;;;;;;3.03;2.10;;;;;;;;;;5006264;28;20192;-92
2023/09/05 14:18:19;;;;;;;3.22;2.30;;;;;;;;;;4972509;29;20278;-91
2023/09/05 14:21:24;;;;;;;3.58;2.08;;;;;;;;;;4990115;28;20321;-90
2023/09/05 14:24:31;;;;;;;4.63;2.55;;;;;;;;;;4983841;28;20205;-92
2023/09/05 14:27:37;;;;;;;6.85;2.40;;;;;;;;;;4988264;28;20252;-88
2023/09/05 14:30:43;;;;;;;3.58;2.30;;;;;;;;;;4990908;28;20188;-92
2023/09/05 14:33:49;;;;;;;4.80;2.30;;;;;;;;;;4991869;28;20664;-92
2023/09/05 14:36:54;;;;;;;6.97;2.40;;;;;;;;;;4992089;28;20236;-90
2023/09/05 14:40:01;;;;;;;4.22;2.38;;;;;;;;;;4991001;28;20195;-90
2023/09/05 14:43:06;;;;;;;3.88;2.30;;;;;;;;;;4990796;28;20262;-89
2023/09/05 14:46:12;;;;;;;2.92;2.00;;;;;;;;;;4992054;28;20173;-91
2023/09/05 14:49:17;;;;;;;3.17;2.13;;;;;;;;;;4991031;28;20192;-91
2023/09/05 14:52:22;;;;;;;7.10;2.60;;;;;;;;;;4989921;28;20257;-92
2023/09/05 14:55:28;;;;;;;3.60;2.40;;;;;;;;;;4980711;28;20186;-93
2023/09/05 14:58:33;;;;;;;5.30;2.33;;;;;;;;;;4986323;28;20223;-91
2023/09/05 15:01:39;;;;;;;2.92;2.13;;;;;;;;;;5009845;28;20188;-91
2023/09/05 15:04:44;;;;;;;3.50;2.35;;;;;;;;;;5008895;28;20212;-90
2023/09/05 15:07:50;;;;;;;4.03;2.60;;;;;;;;;;5008221;28;20224;-91
2023/09/05 15:10:56;;;;;;;4.32;2.25;;;;;;;;;;5006665;28;20188;-90
2023/09/05 15:14:01;;;;;;;3.15;2.20;;;;;;;;;;4989046;28;20216;-89
2023/09/05 15:17:06;;;;;;;3.17;2.13;;;;;;;;;;4985519;28;20269;-88
2023/09/05 15:20:12;;;;;;;3.75;2.20;;;;;;;;;;4989073;28;20270;-91
2023/09/05 15:23:18;;;;;;;8.77;2.42;;;;;;;;;;4986288;28;20189;-91
2023/09/05 15:26:24;;;;;;;5.95;2.33;;;;;;;;;;4984261;28;20201;-89
2023/09/05 15:29:29;;;;;;;4.10;2.25;;;;;;;;;;4976091;28;20201;-89
2023/09/05 15:32:37;;;;;;;3.17;2.30;;;;;;;;;;4980125;28;20209;-91
2023/09/05 15:35:42;;;;;;;4.18;2.58;;;;;;;;;;5000282;28;20204;-92
2023/09/05 15:38:47;;;;;;;3.28;2.17;;;;;;;;;;5004639;28;20192;-92
2023/09/05 15:41:54;;;;;;;8.00;2.42;;;;;;;;;;5004415;28;20185;-90
2023/09/05 15:44:59;;;;;;;4.97;2.30;;;;;;;;;;5003921;28;20235;-87
2023/09/05 15:48:06;;;;;;;6.13;2.65;;;;;;;;;;5003347;28;20243;-91
2023/09/05 15:51:11;;;;;;;3.63;2.53;;;;;;;;;;5002493;28;20647;-93
2023/09/05 15:54:16;;;;;;;5.55;2.40;;;;;;;;;;5003831;28;20188;-92
2023/09/05 15:57:23;;;;;;;4.53;2.35;;;;;;;;;;5003332;28;20185;-93
2023/09/05 16:00:29;;;;;;;4.28;2.35;;;;;;;;;;5002786;28;20267;-87
2023/09/05 16:03:35;;;;;;;5.93;2.70;;;;;;;;;;5001407;28;20285;-94
2023/09/05 16:06:39;;;;;;;6.45;2.33;;;;;;;;;;4965469;28;20179;-90
2023/09/05 16:09:46;;;;;;;6.15;2.72;;;;;;;;;;4969790;28;20209;-92
2023/09/05 16:12:53;;;;;;;6.15;2.53;;;;;;;;;;4983386;28;20253;-92
2023/09/05 16:15:58;;;;;;;3.90;2.67;;;;;;;;;;4984969;28;20205;-86
2023/09/05 16:19:03;;;;;;;4.93;2.75;;;;;;;;;;4985850;28;20206;-91
2023/09/05 16:22:08;;;;;;;4.78;2.33;;;;;;;;;;4985918;28;20688;-90
2023/09/05 16:25:13;;;;;;;6.95;2.60;;;;;;;;;;4985476;28;20229;-91
2023/09/05 16:28:26;;;;;;;8.07;3.17;;;;;;;;;;4986044;28;20721;-90
2023/09/05 16:31:33;;;;;;;5.82;3.33;;;;;;;;;;4988241;28;20213;-87
2023/09/05 16:34:38;;;;;;;5.85;3.03;;;;;;;;;;4979126;28;20697;-92
2023/09/05 16:37:43;;;;;;;5.15;2.80;;;;;;;;;;4977661;28;20209;-89
2023/09/05 16:40:49;;;;;;;18.33;9.07;;;;;;;;;;4966893;29;20669;-90
2023/09/05 16:43:55;;;;;;;8.00;3.00;;;;;;;;;;4968439;28;20166;-90
2023/09/05 16:47:01;;;;;;;7.63;3.25;;;;;;;;;;4966231;28;20216;-92
2023/09/05 16:50:06;;;;;;;6.07;2.85;;;;;;;;;;4965935;28;20194;-90
2023/09/05 16:56:32;;;;;;;7.53;2.85;;;;;;;;;;4964325;28;20187;-93
2023/09/05 16:59:41;;;;;;;7.35;2.70;;;;;;;;;;4965368;29;20226;-88
2023/09/05 17:02:47;;;;;;;9.63;2.47;;;;;;;;;;4966062;28;20696;-88
2023/09/05 17:05:52;;;;;;;5.55;2.65;;;;;;;;;;4966406;28;20575;-92
2023/09/05 17:08:58;;;;;;;5.60;2.80;;;;;;;;;;4978005;28;20704;-89
2023/09/05 17:12:04;;;;;;;7.10;2.40;;;;;;;;;;4982994;28;20225;-92
2023/09/05 17:15:11;;;;;;;5.47;2.70;;;;;;;;;;4983543;28;20201;-89
2023/09/05 17:18:18;;;;;;;5.65;2.72;;;;;;;;;;4982315;28;20201;-90
2023/09/05 17:21:23;;;;;;;5.03;2.40;;;;;;;;;;4982726;28;20202;-90
2023/09/05 17:24:28;;;;;;;5.85;2.80;;;;;;;;;;4983044;28;20186;-91
2023/09/05 17:27:33;;;;;;;6.57;3.08;;;;;;;;;;4988030;28;20213;-90
2023/09/05 17:30:40;;;;;;;7.80;2.90;;;;;;;;;;4984735;28;20305;-88
2023/09/05 17:33:45;;;;;;;10.55;3.45;;;;;;;;;;4985168;28;20186;-91
2023/09/05 17:36:51;;;;;;;8.18;3.42;;;;;;;;;;4985215;28;20194;-90
2023/09/05 17:39:56;;;;;;;5.25;2.92;;;;;;;;;;4985719;28;20232;-90
2023/09/05 17:43:01;;;;;;;8.82;3.05;;;;;;;;;;4984314;28;20193;-90
2023/09/05 17:46:08;;;;;;;6.38;3.60;;;;;;;;;;4963998;28;20203;-91
2023/09/05 17:49:14;;;;;;;6.07;3.22;;;;;;;;;;4964324;28;20230;-89
2023/09/05 17:52:19;;;;;;;6.22;3.63;;;;;;;;;;4963354;28;20186;-89
2023/09/05 17:55:24;;;;;;;7.15;3.42;;;;;;;;;;4963254;28;20205;-91
2023/09/05 17:58:29;;;;;;;14.80;3.88;;;;;;;;;;4966011;28;20187;-91
2023/09/05 18:01:36;;;;;;;6.13;3.17;;;;;;;;;;4966243;28;20170;-90
2023/09/05 18:04:41;;;;;;;9.35;4.32;;;;;;;;;;4964310;28;20194;-90
2023/09/05 18:07:51;;;;;;;8.82;3.60;;;;;;;;;;4965301;29;20214;-90
2023/09/05 18:11:03;;;;;;;7.78;3.38;;;;;;;;;;4966197;29;20198;-90
2023/09/05 18:14:12;;;;;;;7.28;3.75;;;;;;;;;;4964360;29;20190;-87
2023/09/05 18:17:18;;;;;;;11.38;3.90;;;;;;;;;;4963489;28;20198;-90
2023/09/05 18:20:23;;;;;;;7.57;4.00;;;;;;;;;;4963487;29;20187;-89
2023/09/05 18:23:29;;;;;;;8.30;4.32;;;;;;;;;;4961344;29;20195;-87
2023/09/05 18:26:34;;;;;;;9.13;4.35;;;;;;;;;;4963083;29;20194;-88
2023/09/05 18:29:39;;;;;;;8.98;4.45;;;;;;;;;;4964550;28;20199;-86
2023/09/05 18:32:46;;;;;;;8.10;3.72;;;;;;;;;;4968543;29;20257;-88
2023/09/05 18:35:51;;;;;;;9.80;3.85;;;;;;;;;;4968332;29;20191;-89
2023/09/05 18:38:56;;;;;;;8.13;4.28;;;;;;;;;;4970941;29;20291;-89
2023/09/05 18:42:04;;;;;;;10.93;4.20;;;;;;;;;;4971616;29;20194;-89
2023/09/05 18:45:10;;;;;;;8.45;3.75;;;;;;;;;;4971443;29;20275;-86